createdAt,value
2023-03-22T00:00:17.642Z,13.45
2023-03-22T00:02:44.787Z,15.70
2023-03-22T00:05:11.863Z,14.77
2023-03-22T00:07:41.107Z,13.75
2023-03-22T00:10:08.532Z,16.15
2023-03-22T00:12:35.744Z,14.40
2023-03-22T00:15:02.888Z,13.93
2023-03-22T00:17:31.139Z,15.33
2023-03-22T00:19:58.472Z,14.20
2023-03-22T00:22:26.215Z,13.68
2023-03-22T00:24:53.263Z,15.32
2023-03-22T00:27:20.564Z,14.88
2023-03-22T00:29:47.683Z,15.73
2023-03-22T00:32:16.293Z,14.68
2023-03-22T00:34:43.523Z,15.82
2023-03-22T00:37:10.652Z,14.23
2023-03-22T00:39:37.901Z,12.52
2023-03-22T00:42:06.836Z,13.67
2023-03-22T00:44:33.839Z,12.40
2023-03-22T00:47:01.197Z,14.82
2023-03-22T00:49:29.321Z,13.18
2023-03-22T00:51:56.628Z,13.20
2023-03-22T00:54:23.570Z,13.47
2023-03-22T00:56:50.798Z,11.90
2023-03-22T00:59:18.095Z,13.48
2023-03-22T01:01:45.188Z,13.43
2023-03-22T01:04:18.088Z,14.57
2023-03-22T01:06:47.295Z,13.27
2023-03-22T01:09:15.221Z,13.40
2023-03-22T01:11:43.616Z,14.00
2023-03-22T01:14:13.994Z,15.35
2023-03-22T01:16:41.293Z,14.45
2023-03-22T01:19:08.817Z,13.57
2023-03-22T01:21:35.980Z,15.13
2023-03-22T01:24:03.476Z,15.13
2023-03-22T01:26:30.674Z,16.48
2023-03-22T01:28:57.792Z,15.02
2023-03-22T01:31:25.045Z,14.47
2023-03-22T01:33:52.161Z,15.65
2023-03-22T01:36:21.168Z,17.17
2023-03-22T01:38:48.237Z,14.10
2023-03-22T01:41:17.270Z,19.33
2023-03-22T01:43:45.095Z,11.43
2023-03-22T01:46:12.394Z,16.13
2023-03-22T01:48:46.190Z,16.65
2023-03-22T01:51:14.635Z,15.02
2023-03-22T01:53:58.709Z,14.90
2023-03-22T01:56:28.810Z,13.60
2023-03-22T01:58:56.542Z,16.75
2023-03-22T02:01:33.847Z,14.40
2023-03-22T02:04:15.274Z,15.82
2023-03-22T02:06:43.097Z,16.63
2023-03-22T02:09:22.160Z,15.77
2023-03-22T02:12:08.683Z,14.20
2023-03-22T02:14:56.534Z,15.55
2023-03-22T02:18:17.268Z,15.35
2023-03-22T02:21:10.554Z,13.15
2023-03-22T02:23:46.626Z,17.47
2023-03-22T02:26:50.781Z,13.55
2023-03-22T02:29:38.223Z,13.90
2023-03-22T02:32:41.325Z,11.80
2023-03-22T02:35:19.037Z,14.10
2023-03-22T02:37:55.454Z,12.80
2023-03-22T02:40:34.769Z,12.82
2023-03-22T02:43:18.492Z,15.27
2023-03-22T02:45:54.625Z,14.82
2023-03-22T02:48:27.674Z,13.52
2023-03-22T02:51:10.702Z,11.63
2023-03-22T02:54:03.870Z,12.00
2023-03-22T02:56:39.457Z,13.35
2023-03-22T02:59:12.077Z,12.30
2023-03-22T03:02:02.028Z,12.10
2023-03-22T03:04:33.391Z,12.43
2023-03-22T03:07:06.132Z,12.93
2023-03-22T03:09:33.774Z,12.90
2023-03-22T03:12:00.839Z,12.20
2023-03-22T03:14:31.288Z,12.48
2023-03-22T03:17:17.235Z,12.97
2023-03-22T03:20:00.570Z,11.60
2023-03-22T03:22:59.008Z,12.63
2023-03-22T03:25:29.128Z,12.10
2023-03-22T03:28:11.578Z,12.73
2023-03-22T03:30:57.257Z,12.97
2023-03-22T03:33:28.283Z,9.90
2023-03-22T03:36:11.817Z,10.27
2023-03-22T03:38:45.500Z,9.38
2023-03-22T03:41:20.341Z,11.50
2023-03-22T03:43:51.690Z,9.53
2023-03-22T03:46:19.156Z,11.02
2023-03-22T03:48:49.725Z,9.25
2023-03-22T03:51:17.124Z,10.90
2023-03-22T03:53:44.472Z,8.68
2023-03-22T03:56:11.884Z,14.40
2023-03-22T03:58:43.942Z,10.80
2023-03-22T04:01:11.689Z,11.27
2023-03-22T04:03:50.844Z,9.65
2023-03-22T04:06:36.226Z,8.13
2023-03-22T04:09:09.820Z,7.97
2023-03-22T04:11:41.788Z,9.23
2023-03-22T04:14:09.087Z,15.25
2023-03-22T04:16:36.413Z,10.60
2023-03-22T04:19:04.320Z,9.23
2023-03-22T04:21:31.364Z,9.67
2023-03-22T04:24:01.010Z,8.90
2023-03-22T04:26:34.099Z,7.20
2023-03-22T04:29:14.922Z,10.73
2023-03-22T04:31:46.901Z,10.90
2023-03-22T04:34:39.484Z,11.37
2023-03-22T04:37:14.011Z,10.05
2023-03-22T04:39:48.542Z,10.25
2023-03-22T04:42:36.202Z,8.93
2023-03-22T04:45:12.540Z,11.15
2023-03-22T04:47:41.302Z,8.83
2023-03-22T04:50:09.363Z,14.55
2023-03-22T04:52:44.935Z,8.95
2023-03-22T04:55:12.128Z,10.43
2023-03-22T04:57:39.383Z,13.48
2023-03-22T05:00:08.707Z,12.40
2023-03-22T05:02:41.415Z,8.45
2023-03-22T05:05:16.282Z,11.48
2023-03-22T05:07:44.256Z,13.55
2023-03-22T05:10:11.446Z,11.15
2023-03-22T05:12:39.721Z,11.80
2023-03-22T05:15:28.545Z,10.27
2023-03-22T05:17:55.924Z,11.98
2023-03-22T05:20:25.058Z,12.00
2023-03-22T05:23:14.817Z,13.90
2023-03-22T05:25:47.680Z,11.43
2023-03-22T05:28:19.805Z,10.77
2023-03-22T05:31:05.969Z,14.25
2023-03-22T05:33:42.914Z,13.57
2023-03-22T05:36:17.030Z,13.60
2023-03-22T05:39:15.978Z,14.37
2023-03-22T05:41:44.226Z,13.38
2023-03-22T05:44:11.376Z,13.48
2023-03-22T05:46:44.263Z,11.82
2023-03-22T05:49:23.370Z,11.70
2023-03-22T05:51:50.718Z,12.47
2023-03-22T05:54:19.131Z,10.32
2023-03-22T05:56:50.202Z,10.15
2023-03-22T05:59:17.281Z,12.38
2023-03-22T06:01:44.905Z,9.98
2023-03-22T06:04:23.714Z,12.53
2023-03-22T06:06:57.482Z,8.52
2023-03-22T06:09:40.539Z,10.60
2023-03-22T06:12:12.380Z,6.63
2023-03-22T06:14:40.479Z,6.68
2023-03-22T06:17:15.425Z,6.50
2023-03-22T06:19:43.929Z,6.45
2023-03-22T06:22:13.521Z,6.78
2023-03-22T06:24:43.369Z,7.30
2023-03-22T06:27:14.623Z,6.90
2023-03-22T06:29:41.832Z,7.07
2023-03-22T06:32:09.052Z,6.43
2023-03-22T06:34:36.476Z,7.32
2023-03-22T06:37:03.639Z,7.55
2023-03-22T06:39:34.505Z,6.70
2023-03-22T06:42:01.920Z,10.70
2023-03-22T06:44:29.340Z,6.63
2023-03-22T06:47:16.576Z,6.45
2023-03-22T06:49:54.798Z,5.53
2023-03-22T06:52:26.185Z,4.43
2023-03-22T06:54:53.379Z,4.67
2023-03-22T06:57:20.641Z,4.85
2023-03-22T06:59:47.782Z,6.22
2023-03-22T07:02:14.796Z,6.55
2023-03-22T07:04:54.608Z,6.65
2023-03-22T07:07:21.713Z,8.33
2023-03-22T07:09:50.062Z,8.40
2023-03-22T07:12:18.907Z,9.57
2023-03-22T07:14:47.434Z,8.02
2023-03-22T07:17:24.990Z,7.25
2023-03-22T07:19:52.414Z,6.50
2023-03-22T07:22:24.973Z,6.13
2023-03-22T07:24:57.249Z,6.65
2023-03-22T07:27:27.705Z,5.95
2023-03-22T07:29:55.583Z,5.85
2023-03-22T07:32:23.089Z,6.13
2023-03-22T07:35:10.521Z,5.45
2023-03-22T07:37:39.980Z,5.60
2023-03-22T07:40:16.411Z,8.57
2023-03-22T07:42:44.043Z,6.38
2023-03-22T07:45:23.561Z,5.13
2023-03-22T07:48:13.989Z,4.57
2023-03-22T07:51:07.297Z,6.00
2023-03-22T07:53:34.609Z,5.57
2023-03-22T07:56:04.545Z,6.10
2023-03-22T07:58:31.847Z,5.57
2023-03-22T08:01:05.089Z,4.55
2023-03-22T08:03:54.421Z,4.70
2023-03-22T08:06:43.031Z,5.35
2023-03-22T08:09:11.699Z,4.82
2023-03-22T08:11:38.791Z,5.07
2023-03-22T08:14:06.320Z,5.70
2023-03-22T08:16:38.532Z,4.82
2023-03-22T08:19:06.827Z,6.47
2023-03-22T08:21:37.420Z,5.65
2023-03-22T08:24:07.550Z,4.37
2023-03-22T08:26:57.739Z,8.40
2023-03-22T08:29:39.131Z,5.80
2023-03-22T08:32:07.900Z,6.30
2023-03-22T08:34:40.203Z,9.13
2023-03-22T08:37:08.800Z,4.63
2023-03-22T08:39:36.801Z,5.97
2023-03-22T08:42:19.014Z,4.25
2023-03-22T08:44:47.141Z,5.05
2023-03-22T08:47:14.531Z,4.55
2023-03-22T08:49:43.377Z,5.77
2023-03-22T08:52:27.157Z,5.57
2023-03-22T08:55:02.093Z,5.07
2023-03-22T08:57:50.583Z,4.85
2023-03-22T09:00:36.483Z,4.85
2023-03-22T09:03:42.526Z,8.40
2023-03-22T09:06:11.379Z,4.63
2023-03-22T09:08:42.416Z,5.85
2023-03-22T09:11:13.828Z,5.03
2023-03-22T09:13:43.038Z,4.60
2023-03-22T09:16:10.248Z,4.07
2023-03-22T09:18:38.842Z,3.88
2023-03-22T09:21:12.346Z,4.18
2023-03-22T09:24:08.810Z,6.80
2023-03-22T09:26:50.577Z,8.43
2023-03-22T09:29:19.616Z,5.93
2023-03-22T09:31:49.103Z,6.07
2023-03-22T09:34:20.283Z,7.18
2023-03-22T09:36:47.676Z,6.30
2023-03-22T09:39:18.454Z,6.43
2023-03-22T09:41:55.181Z,7.07
2023-03-22T09:44:39.568Z,5.72
2023-03-22T09:47:19.510Z,5.93
2023-03-22T09:49:53.711Z,6.45
2023-03-22T09:52:21.796Z,5.22
2023-03-22T09:54:51.517Z,4.97
2023-03-22T09:57:33.381Z,4.68
2023-03-22T10:00:16.692Z,6.13
2023-03-22T10:02:46.633Z,6.28
2023-03-22T10:05:34.688Z,5.15
2023-03-22T10:08:05.009Z,5.90
2023-03-22T10:10:32.363Z,5.40
2023-03-22T10:13:23.508Z,5.72
2023-03-22T10:15:59.260Z,6.75
2023-03-22T10:18:39.598Z,5.22
2023-03-22T10:21:14.579Z,5.37
2023-03-22T10:24:20.465Z,7.10
2023-03-22T10:26:49.230Z,6.28
2023-03-22T10:29:39.811Z,6.78
2023-03-22T10:32:15.272Z,4.25
2023-03-22T10:34:43.696Z,7.30
2023-03-22T10:37:17.544Z,5.38
2023-03-22T10:39:50.033Z,6.13
2023-03-22T10:42:21.729Z,5.47
2023-03-22T10:44:54.714Z,6.18
2023-03-22T10:47:33.641Z,6.93
2023-03-22T10:50:05.092Z,5.68
2023-03-22T10:52:44.805Z,6.65
2023-03-22T10:55:13.817Z,9.90
2023-03-22T10:57:43.409Z,6.20
2023-03-22T11:00:15.356Z,5.97
2023-03-22T11:02:53.699Z,5.47
2023-03-22T11:05:27.430Z,6.85
2023-03-22T11:07:55.088Z,7.07
2023-03-22T11:10:23.646Z,4.82
2023-03-22T11:12:54.093Z,5.73
2023-03-22T11:15:30.705Z,4.50
2023-03-22T11:18:16.872Z,4.45
2023-03-22T11:20:58.213Z,5.93
2023-03-22T11:23:26.174Z,5.65
2023-03-22T11:25:56.700Z,5.83
2023-03-22T11:28:36.305Z,5.53
2023-03-22T11:31:11.246Z,10.80
2023-03-22T11:33:54.801Z,5.43
2023-03-22T11:36:22.387Z,6.25
2023-03-22T11:38:57.579Z,5.73
2023-03-22T11:41:31.012Z,6.40
2023-03-22T11:44:12.341Z,5.97
2023-03-22T11:46:40.389Z,5.97
2023-03-22T11:49:14.800Z,7.22
2023-03-22T11:51:43.968Z,7.37
2023-03-22T11:54:16.839Z,5.35
2023-03-22T11:56:47.681Z,6.15
2023-03-22T11:59:37.174Z,7.15
2023-03-22T12:02:34.712Z,7.43
2023-03-22T12:05:09.424Z,5.13
2023-03-22T12:07:37.803Z,5.85
2023-03-22T12:10:23.308Z,8.23
2023-03-22T12:12:56.103Z,5.85
2023-03-22T12:15:35.629Z,4.10
2023-03-22T12:18:08.791Z,6.00
2023-03-22T12:20:35.795Z,8.27
2023-03-22T12:23:14.348Z,7.07
2023-03-22T12:26:03.861Z,6.35
2023-03-22T12:28:58.827Z,5.32
2023-03-22T12:32:01.211Z,6.00
2023-03-22T12:34:43.732Z,5.88
2023-03-22T12:37:17.848Z,4.53
2023-03-22T12:40:07.476Z,5.68
2023-03-22T12:42:58.995Z,4.28
2023-03-22T12:45:32.004Z,4.97
2023-03-22T12:48:10.638Z,4.75
2023-03-22T12:50:48.584Z,4.38
2023-03-22T12:53:18.888Z,5.15
2023-03-22T12:55:47.582Z,5.38
2023-03-22T12:58:22.307Z,5.63
2023-03-22T13:00:59.390Z,5.43
2023-03-22T13:03:36.969Z,4.68
2023-03-22T13:06:42.069Z,4.90
2023-03-22T13:09:30.090Z,4.90
2023-03-22T13:12:16.000Z,6.13
2023-03-22T13:14:49.606Z,5.53
2023-03-22T13:17:22.450Z,7.45
2023-03-22T13:19:55.579Z,5.38
2023-03-22T13:22:38.070Z,4.47
2023-03-22T13:25:14.709Z,4.87
2023-03-22T13:28:00.004Z,4.28
2023-03-22T13:30:50.260Z,5.03
2023-03-22T13:33:20.202Z,5.57
2023-03-22T13:35:57.494Z,6.82
2023-03-22T13:38:35.240Z,5.73
2023-03-22T13:41:14.213Z,7.85
2023-03-22T13:43:54.342Z,5.13
2023-03-22T13:46:21.470Z,6.68
2023-03-22T13:48:52.078Z,7.13
2023-03-22T13:51:26.589Z,4.90
2023-03-22T13:53:53.749Z,7.68
2023-03-22T13:56:43.162Z,5.03
2023-03-22T13:59:23.034Z,4.28
2023-03-22T14:02:08.539Z,6.07
2023-03-22T14:04:46.410Z,4.73
2023-03-22T14:07:40.181Z,4.53
2023-03-22T14:10:16.454Z,4.35
2023-03-22T14:12:46.374Z,5.20
2023-03-22T14:15:21.361Z,4.78
2023-03-22T14:18:15.126Z,4.73
2023-03-22T14:20:42.933Z,6.00
